sensor_id;sensor_type;location;lat;lon;timestamp;temperature;humidity
15013;DHT22;7603;49.432;11.418;2022-07-04T00:00:24;18.30;99.90
15013;DHT22;7603;49.432;11.418;2022-07-04T00:02:50;18.20;99.90
15013;DHT22;7603;49.432;11.418;2022-07-04T00:08:37;18.00;99.90
15013;DHT22;7603;49.432;11.418;2022-07-04T00:11:03;17.90;99.90
15013;DHT22;7603;49.432;11.418;2022-07-04T00:20:26;17.60;99.90
15013;DHT22;7603;49.432;11.418;2022-07-04T00:22:52;17.50;99.90
15013;DHT22;7603;49.432;11.418;2022-07-04T00:25:17;17.50;99.90
15013;DHT22;7603;49.432;11.418;2022-07-04T00:27:43;17.50;99.90
15013;DHT22;7603;49.432;11.418;2022-07-04T00:30:09;17.40;99.90
15013;DHT22;7603;49.432;11.418;2022-07-04T00:35:57;17.50;99.90
15013;DHT22;7603;49.432;11.418;2022-07-04T00:44:55;17.80;99.90
15013;DHT22;7603;49.432;11.418;2022-07-04T00:47:21;17.90;99.90
15013;DHT22;7603;49.432;11.418;2022-07-04T00:49:47;17.90;99.90
15013;DHT22;7603;49.432;11.418;2022-07-04T00:52:13;17.90;99.90
15013;DHT22;7603;49.432;11.418;2022-07-04T00:54:47;18.00;99.90
15013;DHT22;7603;49.432;11.418;2022-07-04T00:57:17;18.00;99.90
15013;DHT22;7603;49.432;11.418;2022-07-04T01:02:48;18.10;99.90
15013;DHT22;7603;49.432;11.418;2022-07-04T01:05:14;18.00;99.90
15013;DHT22;7603;49.432;11.418;2022-07-04T01:07:41;17.90;99.90
15013;DHT22;7603;49.432;11.418;2022-07-04T01:10:07;17.90;99.90
15013;DHT22;7603;49.432;11.418;2022-07-04T01:12:33;17.90;99.90
15013;DHT22;7603;49.432;11.418;2022-07-04T01:14:58;17.90;99.90
15013;DHT22;7603;49.432;11.418;2022-07-04T01:17:49;17.80;99.90
15013;DHT22;7603;49.432;11.418;2022-07-04T01:20:15;17.80;99.90
15013;DHT22;7603;49.432;11.418;2022-07-04T01:22:59;17.70;99.90
15013;DHT22;7603;49.432;11.418;2022-07-04T01:32:27;17.40;99.90
15013;DHT22;7603;49.432;11.418;2022-07-04T01:34:53;17.40;99.90
15013;DHT22;7603;49.432;11.418;2022-07-04T01:37:47;17.40;99.90
15013;DHT22;7603;49.432;11.418;2022-07-04T01:43:34;17.40;99.90
15013;DHT22;7603;49.432;11.418;2022-07-04T01:46:00;17.40;99.90
15013;DHT22;7603;49.432;11.418;2022-07-04T01:48:42;17.50;99.90
15013;DHT22;7603;49.432;11.418;2022-07-04T02:04:04;17.40;99.90
15013;DHT22;7603;49.432;11.418;2022-07-04T02:13:13;17.30;99.90
15013;DHT22;7603;49.432;11.418;2022-07-04T02:15:40;17.30;99.90
15013;DHT22;7603;49.432;11.418;2022-07-04T02:18:10;17.20;99.90
15013;DHT22;7603;49.432;11.418;2022-07-04T02:20:37;17.20;99.90
15013;DHT22;7603;49.432;11.418;2022-07-04T02:23:03;17.20;99.90
15013;DHT22;7603;49.432;11.418;2022-07-04T02:25:29;17.20;99.90
15013;DHT22;7603;49.432;11.418;2022-07-04T02:27:56;17.10;99.90
15013;DHT22;7603;49.432;11.418;2022-07-04T02:30:22;17.10;99.90
15013;DHT22;7603;49.432;11.418;2022-07-04T02:32:48;17.10;99.90
15013;DHT22;7603;49.432;11.418;2022-07-04T02:35:13;17.10;99.90
15013;DHT22;7603;49.432;11.418;2022-07-04T02:37:39;17.10;99.90
15013;DHT22;7603;49.432;11.418;2022-07-04T02:40:24;17.10;99.90
15013;DHT22;7603;49.432;11.418;2022-07-04T02:42:49;17.20;99.90
15013;DHT22;7603;49.432;11.418;2022-07-04T02:48:37;17.20;99.90
15013;DHT22;7603;49.432;11.418;2022-07-04T02:51:02;17.20;99.90
15013;DHT22;7603;49.432;11.418;2022-07-04T02:53:28;17.10;99.90
15013;DHT22;7603;49.432;11.418;2022-07-04T02:55:54;17.10;99.90
15013;DHT22;7603;49.432;11.418;2022-07-04T03:01:41;17.10;99.90
15013;DHT22;7603;49.432;11.418;2022-07-04T03:07:28;17.10;99.90
15013;DHT22;7603;49.432;11.418;2022-07-04T03:09:54;17.10;99.90
15013;DHT22;7603;49.432;11.418;2022-07-04T03:12:19;17.10;99.90
15013;DHT22;7603;49.432;11.418;2022-07-04T03:14:45;17.10;99.90
15013;DHT22;7603;49.432;11.418;2022-07-04T03:17:11;17.20;99.90
15013;DHT22;7603;49.432;11.418;2022-07-04T03:19:36;17.20;99.90
15013;DHT22;7603;49.432;11.418;2022-07-04T03:22:02;17.20;99.90
15013;DHT22;7603;49.432;11.418;2022-07-04T03:24:27;17.20;99.90
15013;DHT22;7603;49.432;11.418;2022-07-04T03:26:53;17.30;99.90
15013;DHT22;7603;49.432;11.418;2022-07-04T03:29:19;17.30;99.90
15013;DHT22;7603;49.432;11.418;2022-07-04T03:31:44;17.30;99.90
15013;DHT22;7603;49.432;11.418;2022-07-04T03:34:10;17.40;99.90
15013;DHT22;7603;49.432;11.418;2022-07-04T03:36:36;17.40;99.90
15013;DHT22;7603;49.432;11.418;2022-07-04T03:39:02;17.40;99.90
15013;DHT22;7603;49.432;11.418;2022-07-04T03:41:28;17.50;99.90
15013;DHT22;7603;49.432;11.418;2022-07-04T03:43:56;17.50;99.90
15013;DHT22;7603;49.432;11.418;2022-07-04T03:46:22;17.50;99.90
15013;DHT22;7603;49.432;11.418;2022-07-04T03:48:47;17.60;99.90
15013;DHT22;7603;49.432;11.418;2022-07-04T03:51:13;17.60;99.90
15013;DHT22;7603;49.432;11.418;2022-07-04T03:53:39;17.60;99.90
15013;DHT22;7603;49.432;11.418;2022-07-04T03:56:04;17.60;99.90
15013;DHT22;7603;49.432;11.418;2022-07-04T03:58:30;17.60;99.90
15013;DHT22;7603;49.432;11.418;2022-07-04T04:00:56;17.60;99.90
15013;DHT22;7603;49.432;11.418;2022-07-04T04:03:23;17.60;99.90
15013;DHT22;7603;49.432;11.418;2022-07-04T04:06:07;17.60;99.90
15013;DHT22;7603;49.432;11.418;2022-07-04T04:08:33;17.70;99.90
15013;DHT22;7603;49.432;11.418;2022-07-04T04:10:58;17.70;99.90
15013;DHT22;7603;49.432;11.418;2022-07-04T04:13:24;17.70;99.90
15013;DHT22;7603;49.432;11.418;2022-07-04T04:15:50;17.70;99.90
15013;DHT22;7603;49.432;11.418;2022-07-04T04:18:15;17.70;99.90
15013;DHT22;7603;49.432;11.418;2022-07-04T04:20:41;17.80;99.90
15013;DHT22;7603;49.432;11.418;2022-07-04T04:23:07;17.80;99.90
15013;DHT22;7603;49.432;11.418;2022-07-04T04:25:32;17.80;99.90
15013;DHT22;7603;49.432;11.418;2022-07-04T04:27:58;17.80;99.90
15013;DHT22;7603;49.432;11.418;2022-07-04T04:30:23;17.90;99.90
15013;DHT22;7603;49.432;11.418;2022-07-04T04:32:49;18.00;99.90
15013;DHT22;7603;49.432;11.418;2022-07-04T04:35:15;18.00;99.90
15013;DHT22;7603;49.432;11.418;2022-07-04T04:37:40;18.10;99.90
15013;DHT22;7603;49.432;11.418;2022-07-04T04:40:06;18.20;99.90
15013;DHT22;7603;49.432;11.418;2022-07-04T04:42:34;18.30;99.90
15013;DHT22;7603;49.432;11.418;2022-07-04T04:45:04;18.30;99.90
15013;DHT22;7603;49.432;11.418;2022-07-04T04:47:30;18.40;99.90
15013;DHT22;7603;49.432;11.418;2022-07-04T04:49:55;18.40;99.90
15013;DHT22;7603;49.432;11.418;2022-07-04T04:52:21;18.50;99.90
15013;DHT22;7603;49.432;11.418;2022-07-04T04:54:47;18.60;99.90
15013;DHT22;7603;49.432;11.418;2022-07-04T04:57:12;18.70;99.90
15013;DHT22;7603;49.432;11.418;2022-07-04T04:59:38;18.80;99.90
15013;DHT22;7603;49.432;11.418;2022-07-04T05:02:04;18.90;99.90
15013;DHT22;7603;49.432;11.418;2022-07-04T05:04:30;19.10;99.90
15013;DHT22;7603;49.432;11.418;2022-07-04T05:06:55;19.10;99.90
15013;DHT22;7603;49.432;11.418;2022-07-04T05:09:22;19.20;99.90
15013;DHT22;7603;49.432;11.418;2022-07-04T05:11:47;19.30;99.90
15013;DHT22;7603;49.432;11.418;2022-07-04T05:14:14;19.40;99.90
15013;DHT22;7603;49.432;11.418;2022-07-04T05:16:39;19.40;99.90
15013;DHT22;7603;49.432;11.418;2022-07-04T05:19:05;19.50;99.90
15013;DHT22;7603;49.432;11.418;2022-07-04T05:21:31;19.50;99.90
15013;DHT22;7603;49.432;11.418;2022-07-04T05:23:57;19.60;99.90
15013;DHT22;7603;49.432;11.418;2022-07-04T05:26:23;19.60;99.90
15013;DHT22;7603;49.432;11.418;2022-07-04T05:28:48;19.60;99.90
15013;DHT22;7603;49.432;11.418;2022-07-04T05:31:14;19.60;99.90
15013;DHT22;7603;49.432;11.418;2022-07-04T05:33:40;19.50;99.90
15013;DHT22;7603;49.432;11.418;2022-07-04T05:36:06;19.40;99.90
15013;DHT22;7603;49.432;11.418;2022-07-04T05:38:31;19.40;99.90
15013;DHT22;7603;49.432;11.418;2022-07-04T05:40:57;19.40;99.90
15013;DHT22;7603;49.432;11.418;2022-07-04T05:43:23;19.40;99.90
15013;DHT22;7603;49.432;11.418;2022-07-04T05:45:50;19.50;99.90
15013;DHT22;7603;49.432;11.418;2022-07-04T05:48:17;19.50;99.90
15013;DHT22;7603;49.432;11.418;2022-07-04T05:50:42;19.60;99.90
15013;DHT22;7603;49.432;11.418;2022-07-04T05:53:08;19.70;99.90
15013;DHT22;7603;49.432;11.418;2022-07-04T05:55:34;19.80;99.90
15013;DHT22;7603;49.432;11.418;2022-07-04T05:58:00;20.00;99.90
15013;DHT22;7603;49.432;11.418;2022-07-04T06:00:26;20.10;99.90
15013;DHT22;7603;49.432;11.418;2022-07-04T06:02:52;20.20;99.90
15013;DHT22;7603;49.432;11.418;2022-07-04T06:05:17;20.20;99.90
15013;DHT22;7603;49.432;11.418;2022-07-04T06:07:43;20.30;99.90
15013;DHT22;7603;49.432;11.418;2022-07-04T06:10:09;20.30;99.90
15013;DHT22;7603;49.432;11.418;2022-07-04T06:12:35;20.40;99.90
15013;DHT22;7603;49.432;11.418;2022-07-04T06:15:01;20.40;99.90
15013;DHT22;7603;49.432;11.418;2022-07-04T06:17:26;20.50;99.90
15013;DHT22;7603;49.432;11.418;2022-07-04T06:19:53;20.60;99.90
15013;DHT22;7603;49.432;11.418;2022-07-04T06:22:19;20.60;99.90
15013;DHT22;7603;49.432;11.418;2022-07-04T06:24:44;20.80;99.90
15013;DHT22;7603;49.432;11.418;2022-07-04T06:27:10;20.90;99.90
15013;DHT22;7603;49.432;11.418;2022-07-04T06:29:35;21.10;99.90
15013;DHT22;7603;49.432;11.418;2022-07-04T06:32:02;21.30;99.90
15013;DHT22;7603;49.432;11.418;2022-07-04T06:34:27;21.60;99.90
15013;DHT22;7603;49.432;11.418;2022-07-04T06:37:11;21.90;99.90
15013;DHT22;7603;49.432;11.418;2022-07-04T06:39:37;22.20;99.90
15013;DHT22;7603;49.432;11.418;2022-07-04T06:42:03;22.40;99.90
15013;DHT22;7603;49.432;11.418;2022-07-04T06:44:28;22.40;99.90
15013;DHT22;7603;49.432;11.418;2022-07-04T06:46:54;22.30;99.90
15013;DHT22;7603;49.432;11.418;2022-07-04T06:49:19;22.30;99.90
15013;DHT22;7603;49.432;11.418;2022-07-04T06:51:45;22.30;99.90
15013;DHT22;7603;49.432;11.418;2022-07-04T06:54:11;22.30;99.90
15013;DHT22;7603;49.432;11.418;2022-07-04T06:56:36;22.20;99.90
15013;DHT22;7603;49.432;11.418;2022-07-04T06:59:02;22.20;99.90
15013;DHT22;7603;49.432;11.418;2022-07-04T07:01:30;22.20;99.90
15013;DHT22;7603;49.432;11.418;2022-07-04T07:03:56;22.20;99.90
15013;DHT22;7603;49.432;11.418;2022-07-04T07:06:21;22.30;99.90
15013;DHT22;7603;49.432;11.418;2022-07-04T07:08:49;22.40;99.90
15013;DHT22;7603;49.432;11.418;2022-07-04T07:11:15;22.50;99.90
15013;DHT22;7603;49.432;11.418;2022-07-04T07:13:49;22.60;99.90
15013;DHT22;7603;49.432;11.418;2022-07-04T07:16:16;22.80;99.90
15013;DHT22;7603;49.432;11.418;2022-07-04T07:18:43;23.10;99.90
15013;DHT22;7603;49.432;11.418;2022-07-04T07:21:09;23.40;99.90
15013;DHT22;7603;49.432;11.418;2022-07-04T07:23:38;23.60;99.90
15013;DHT22;7603;49.432;11.418;2022-07-04T07:26:04;23.80;99.90
15013;DHT22;7603;49.432;11.418;2022-07-04T07:28:30;24.10;99.90
15013;DHT22;7603;49.432;11.418;2022-07-04T07:30:55;24.40;99.90
15013;DHT22;7603;49.432;11.418;2022-07-04T07:33:21;24.70;99.90
15013;DHT22;7603;49.432;11.418;2022-07-04T07:35:46;25.10;99.90
15013;DHT22;7603;49.432;11.418;2022-07-04T07:38:12;25.40;99.90
15013;DHT22;7603;49.432;11.418;2022-07-04T07:40:38;25.80;99.90
15013;DHT22;7603;49.432;11.418;2022-07-04T07:43:03;26.10;99.40
15013;DHT22;7603;49.432;11.418;2022-07-04T07:45:29;26.30;98.30
15013;DHT22;7603;49.432;11.418;2022-07-04T07:47:54;26.60;96.80
15013;DHT22;7603;49.432;11.418;2022-07-04T07:50:20;26.80;95.80
15013;DHT22;7603;49.432;11.418;2022-07-04T07:52:46;26.90;95.30
15013;DHT22;7603;49.432;11.418;2022-07-04T07:55:11;26.90;93.60
15013;DHT22;7603;49.432;11.418;2022-07-04T07:57:37;26.90;93.40
15013;DHT22;7603;49.432;11.418;2022-07-04T08:00:03;26.90;93.10
15013;DHT22;7603;49.432;11.418;2022-07-04T08:02:29;26.90;92.20
15013;DHT22;7603;49.432;11.418;2022-07-04T08:05:13;26.80;91.70
15013;DHT22;7603;49.432;11.418;2022-07-04T08:07:39;26.80;91.70
15013;DHT22;7603;49.432;11.418;2022-07-04T08:10:05;26.80;91.50
15013;DHT22;7603;49.432;11.418;2022-07-04T08:12:32;26.90;91.20
15013;DHT22;7603;49.432;11.418;2022-07-04T08:14:58;27.00;90.50
15013;DHT22;7603;49.432;11.418;2022-07-04T08:17:23;27.00;90.30
15013;DHT22;7603;49.432;11.418;2022-07-04T08:19:49;27.10;88.40
15013;DHT22;7603;49.432;11.418;2022-07-04T08:22:16;27.10;88.00
15013;DHT22;7603;49.432;11.418;2022-07-04T08:24:42;27.30;88.20
15013;DHT22;7603;49.432;11.418;2022-07-04T08:27:08;27.40;87.80
15013;DHT22;7603;49.432;11.418;2022-07-04T08:29:34;27.60;87.00
15013;DHT22;7603;49.432;11.418;2022-07-04T08:32:00;27.80;85.80
15013;DHT22;7603;49.432;11.418;2022-07-04T08:34:25;27.80;84.90
15013;DHT22;7603;49.432;11.418;2022-07-04T08:36:51;27.90;83.20
15013;DHT22;7603;49.432;11.418;2022-07-04T08:39:17;28.20;81.80
15013;DHT22;7603;49.432;11.418;2022-07-04T08:41:42;28.40;79.60
15013;DHT22;7603;49.432;11.418;2022-07-04T08:44:09;28.50;78.00
15013;DHT22;7603;49.432;11.418;2022-07-04T08:46:38;28.40;76.40
15013;DHT22;7603;49.432;11.418;2022-07-04T08:49:30;28.40;76.20
15013;DHT22;7603;49.432;11.418;2022-07-04T08:52:04;28.30;75.60
15013;DHT22;7603;49.432;11.418;2022-07-04T08:54:32;28.30;75.90
15013;DHT22;7603;49.432;11.418;2022-07-04T08:57:17;28.50;74.90
15013;DHT22;7603;49.432;11.418;2022-07-04T09:00:06;28.60;74.60
15013;DHT22;7603;49.432;11.418;2022-07-04T09:02:34;28.90;73.10
15013;DHT22;7603;49.432;11.418;2022-07-04T09:04:59;29.30;72.60
15013;DHT22;7603;49.432;11.418;2022-07-04T09:07:27;29.50;71.70
15013;DHT22;7603;49.432;11.418;2022-07-04T09:09:54;29.80;70.40
15013;DHT22;7603;49.432;11.418;2022-07-04T09:12:20;30.00;68.80
15013;DHT22;7603;49.432;11.418;2022-07-04T09:14:45;30.00;67.00
15013;DHT22;7603;49.432;11.418;2022-07-04T09:17:11;29.90;67.60
15013;DHT22;7603;49.432;11.418;2022-07-04T09:19:37;29.90;68.30
15013;DHT22;7603;49.432;11.418;2022-07-04T09:22:09;29.70;68.50
15013;DHT22;7603;49.432;11.418;2022-07-04T09:24:47;29.70;68.10
15013;DHT22;7603;49.432;11.418;2022-07-04T09:27:29;29.80;66.30
15013;DHT22;7603;49.432;11.418;2022-07-04T09:29:55;30.10;66.10
15013;DHT22;7603;49.432;11.418;2022-07-04T09:32:41;30.30;64.30
15013;DHT22;7603;49.432;11.418;2022-07-04T09:35:15;30.20;60.50
15013;DHT22;7603;49.432;11.418;2022-07-04T09:37:43;30.20;60.70
15013;DHT22;7603;49.432;11.418;2022-07-04T09:40:36;30.40;61.00
15013;DHT22;7603;49.432;11.418;2022-07-04T09:43:21;30.60;60.00
15013;DHT22;7603;49.432;11.418;2022-07-04T09:45:58;30.60;60.70
15013;DHT22;7603;49.432;11.418;2022-07-04T09:48:25;30.30;61.50
15013;DHT22;7603;49.432;11.418;2022-07-04T09:50:51;30.50;62.10
15013;DHT22;7603;49.432;11.418;2022-07-04T09:53:17;30.50;61.80
15013;DHT22;7603;49.432;11.418;2022-07-04T09:55:43;30.60;61.20
15013;DHT22;7603;49.432;11.418;2022-07-04T09:58:12;30.50;60.30
15013;DHT22;7603;49.432;11.418;2022-07-04T10:00:45;30.60;59.30
15013;DHT22;7603;49.432;11.418;2022-07-04T10:03:21;30.50;59.90
15013;DHT22;7603;49.432;11.418;2022-07-04T10:08:33;30.60;60.60
15013;DHT22;7603;49.432;11.418;2022-07-04T10:11:00;30.70;59.70
15013;DHT22;7603;49.432;11.418;2022-07-04T10:13:26;30.80;58.80
15013;DHT22;7603;49.432;11.418;2022-07-04T10:15:53;31.30;58.00
15013;DHT22;7603;49.432;11.418;2022-07-04T10:18:20;31.60;56.70
15013;DHT22;7603;49.432;11.418;2022-07-04T10:20:47;31.50;55.50
15013;DHT22;7603;49.432;11.418;2022-07-04T10:23:14;31.30;55.70
15013;DHT22;7603;49.432;11.418;2022-07-04T10:25:41;31.30;55.80
15013;DHT22;7603;49.432;11.418;2022-07-04T10:28:08;31.50;55.70
15013;DHT22;7603;49.432;11.418;2022-07-04T10:30:35;31.90;55.60
15013;DHT22;7603;49.432;11.418;2022-07-04T10:33:06;32.30;54.80
15013;DHT22;7603;49.432;11.418;2022-07-04T10:38:24;33.10;53.40
15013;DHT22;7603;49.432;11.418;2022-07-04T10:41:06;33.60;52.60
15013;DHT22;7603;49.432;11.418;2022-07-04T10:49:04;33.00;49.60
15013;DHT22;7603;49.432;11.418;2022-07-04T10:51:39;32.50;50.00
15013;DHT22;7603;49.432;11.418;2022-07-04T10:56:54;33.50;50.80
15013;DHT22;7603;49.432;11.418;2022-07-04T10:59:22;35.10;48.10
15013;DHT22;7603;49.432;11.418;2022-07-04T11:01:57;37.00;44.70
15013;DHT22;7603;49.432;11.418;2022-07-04T11:05:09;38.90;42.00
15013;DHT22;7603;49.432;11.418;2022-07-04T11:10:21;39.50;38.30
15013;DHT22;7603;49.432;11.418;2022-07-04T11:20:25;40.80;35.90
15013;DHT22;7603;49.432;11.418;2022-07-04T11:22:50;41.40;35.80
15013;DHT22;7603;49.432;11.418;2022-07-04T11:25:16;42.10;34.90
15013;DHT22;7603;49.432;11.418;2022-07-04T11:27:42;42.90;34.20
15013;DHT22;7603;49.432;11.418;2022-07-04T11:30:10;43.70;33.40
15013;DHT22;7603;49.432;11.418;2022-07-04T11:32:37;44.70;31.90
15013;DHT22;7603;49.432;11.418;2022-07-04T11:35:04;45.60;30.50
15013;DHT22;7603;49.432;11.418;2022-07-04T11:37:30;46.20;29.80
15013;DHT22;7603;49.432;11.418;2022-07-04T11:39:56;46.30;29.40
15013;DHT22;7603;49.432;11.418;2022-07-04T11:43:03;46.70;29.00
15013;DHT22;7603;49.432;11.418;2022-07-04T11:45:48;47.30;27.80
15013;DHT22;7603;49.432;11.418;2022-07-04T11:48:24;47.30;27.60
15013;DHT22;7603;49.432;11.418;2022-07-04T11:50:50;46.20;27.20
15013;DHT22;7603;49.432;11.418;2022-07-04T11:53:17;45.30;27.90
15013;DHT22;7603;49.432;11.418;2022-07-04T11:55:57;45.10;27.80
15013;DHT22;7603;49.432;11.418;2022-07-04T11:58:23;45.50;28.20
15013;DHT22;7603;49.432;11.418;2022-07-04T12:00:49;46.20;27.80
15013;DHT22;7603;49.432;11.418;2022-07-04T12:03:15;47.20;27.60
15013;DHT22;7603;49.432;11.418;2022-07-04T12:05:40;48.20;26.80
15013;DHT22;7603;49.432;11.418;2022-07-04T12:08:09;49.00;26.20
15013;DHT22;7603;49.432;11.418;2022-07-04T12:10:35;49.50;26.00
15013;DHT22;7603;49.432;11.418;2022-07-04T12:13:02;50.00;25.80
15013;DHT22;7603;49.432;11.418;2022-07-04T12:15:42;49.50;25.10
15013;DHT22;7603;49.432;11.418;2022-07-04T12:20:43;47.40;26.50
15013;DHT22;7603;49.432;11.418;2022-07-04T12:23:10;48.10;26.40
15013;DHT22;7603;49.432;11.418;2022-07-04T12:25:37;48.30;26.10
15013;DHT22;7603;49.432;11.418;2022-07-04T12:28:11;47.90;26.00
15013;DHT22;7603;49.432;11.418;2022-07-04T12:30:53;47.40;26.40
15013;DHT22;7603;49.432;11.418;2022-07-04T12:33:24;46.10;26.80
15013;DHT22;7603;49.432;11.418;2022-07-04T12:40:58;42.00;29.30
15013;DHT22;7603;49.432;11.418;2022-07-04T12:43:48;41.10;30.20
15013;DHT22;7603;49.432;11.418;2022-07-04T12:48:51;39.70;31.50
15013;DHT22;7603;49.432;11.418;2022-07-04T12:51:19;39.10;32.40
15013;DHT22;7603;49.432;11.418;2022-07-04T12:53:48;38.90;33.60
15013;DHT22;7603;49.432;11.418;2022-07-04T12:59:16;40.90;31.90
15013;DHT22;7603;49.432;11.418;2022-07-04T13:01:46;42.00;30.80
15013;DHT22;7603;49.432;11.418;2022-07-04T13:04:12;41.60;30.60
15013;DHT22;7603;49.432;11.418;2022-07-04T13:06:38;41.20;31.40
15013;DHT22;7603;49.432;11.418;2022-07-04T13:09:05;41.50;31.10
15013;DHT22;7603;49.432;11.418;2022-07-04T13:11:33;42.60;30.60
15013;DHT22;7603;49.432;11.418;2022-07-04T13:14:18;43.80;29.70
15013;DHT22;7603;49.432;11.418;2022-07-04T13:16:43;44.00;29.10
15013;DHT22;7603;49.432;11.418;2022-07-04T13:19:09;43.60;29.20
15013;DHT22;7603;49.432;11.418;2022-07-04T13:21:35;44.30;29.00
15013;DHT22;7603;49.432;11.418;2022-07-04T13:24:01;45.70;28.30
15013;DHT22;7603;49.432;11.418;2022-07-04T13:26:27;47.30;27.80
15013;DHT22;7603;49.432;11.418;2022-07-04T13:28:55;48.60;26.90
15013;DHT22;7603;49.432;11.418;2022-07-04T13:31:21;49.40;25.90
15013;DHT22;7603;49.432;11.418;2022-07-04T13:33:46;49.00;25.90
15013;DHT22;7603;49.432;11.418;2022-07-04T13:36:12;48.50;26.20
15013;DHT22;7603;49.432;11.418;2022-07-04T13:38:40;48.50;26.30
15013;DHT22;7603;49.432;11.418;2022-07-04T13:41:06;48.70;26.20
15013;DHT22;7603;49.432;11.418;2022-07-04T13:43:32;48.80;26.20
15013;DHT22;7603;49.432;11.418;2022-07-04T13:45:57;48.40;26.10
15013;DHT22;7603;49.432;11.418;2022-07-04T13:48:24;47.20;26.20
15013;DHT22;7603;49.432;11.418;2022-07-04T13:50:52;46.00;26.80
15013;DHT22;7603;49.432;11.418;2022-07-04T13:53:17;44.80;27.30
15013;DHT22;7603;49.432;11.418;2022-07-04T13:55:45;43.70;28.10
15013;DHT22;7603;49.432;11.418;2022-07-04T13:58:11;43.30;28.80
15013;DHT22;7603;49.432;11.418;2022-07-04T14:00:38;43.90;28.90
15013;DHT22;7603;49.432;11.418;2022-07-04T14:03:07;44.60;28.50
15013;DHT22;7603;49.432;11.418;2022-07-04T14:05:33;45.90;27.80
15013;DHT22;7603;49.432;11.418;2022-07-04T14:07:59;47.40;26.70
15013;DHT22;7603;49.432;11.418;2022-07-04T14:10:25;48.60;25.80
15013;DHT22;7603;49.432;11.418;2022-07-04T14:12:50;49.00;25.10
15013;DHT22;7603;49.432;11.418;2022-07-04T14:15:16;49.20;24.50
15013;DHT22;7603;49.432;11.418;2022-07-04T14:17:42;49.40;24.20
15013;DHT22;7603;49.432;11.418;2022-07-04T14:20:09;49.80;24.10
15013;DHT22;7603;49.432;11.418;2022-07-04T14:22:36;50.50;24.10
15013;DHT22;7603;49.432;11.418;2022-07-04T14:25:03;51.10;23.90
15013;DHT22;7603;49.432;11.418;2022-07-04T14:27:28;51.70;23.50
15013;DHT22;7603;49.432;11.418;2022-07-04T14:29:54;52.30;23.20
15013;DHT22;7603;49.432;11.418;2022-07-04T14:32:20;52.10;23.20
15013;DHT22;7603;49.432;11.418;2022-07-04T14:34:46;51.20;23.50
15013;DHT22;7603;49.432;11.418;2022-07-04T14:37:11;50.50;23.90
15013;DHT22;7603;49.432;11.418;2022-07-04T14:39:37;50.90;23.90
15013;DHT22;7603;49.432;11.418;2022-07-04T14:42:03;51.30;23.50
15013;DHT22;7603;49.432;11.418;2022-07-04T14:44:29;51.00;23.30
15013;DHT22;7603;49.432;11.418;2022-07-04T14:46:55;49.90;23.50
15013;DHT22;7603;49.432;11.418;2022-07-04T14:49:20;48.60;23.90
15013;DHT22;7603;49.432;11.418;2022-07-04T14:51:46;47.00;24.60
15013;DHT22;7603;49.432;11.418;2022-07-04T14:54:12;45.30;25.40
15013;DHT22;7603;49.432;11.418;2022-07-04T14:56:38;43.40;26.50
15013;DHT22;7603;49.432;11.418;2022-07-04T14:59:04;41.70;27.70
15013;DHT22;7603;49.432;11.418;2022-07-04T15:01:30;40.40;28.80
15013;DHT22;7603;49.432;11.418;2022-07-04T15:03:56;39.10;29.80
15013;DHT22;7603;49.432;11.418;2022-07-04T15:06:21;38.60;30.80
15013;DHT22;7603;49.432;11.418;2022-07-04T15:08:47;40.10;30.90
15013;DHT22;7603;49.432;11.418;2022-07-04T15:11:13;42.80;29.20
15013;DHT22;7603;49.432;11.418;2022-07-04T15:13:39;44.30;27.40
15013;DHT22;7603;49.432;11.418;2022-07-04T15:16:04;46.10;26.60
15013;DHT22;7603;49.432;11.418;2022-07-04T15:18:30;47.70;25.80
15013;DHT22;7603;49.432;11.418;2022-07-04T15:20:56;49.50;24.90
15013;DHT22;7603;49.432;11.418;2022-07-04T15:23:40;51.20;24.20
15013;DHT22;7603;49.432;11.418;2022-07-04T15:26:24;52.60;23.20
15013;DHT22;7603;49.432;11.418;2022-07-04T15:28:50;53.50;22.40
15013;DHT22;7603;49.432;11.418;2022-07-04T15:31:16;52.70;22.00
15013;DHT22;7603;49.432;11.418;2022-07-04T15:33:42;50.90;22.50
15013;DHT22;7603;49.432;11.418;2022-07-04T15:36:08;48.20;22.60
15013;DHT22;7603;49.432;11.418;2022-07-04T15:38:34;45.90;23.90
15013;DHT22;7603;49.432;11.418;2022-07-04T15:40:59;44.40;25.20
15013;DHT22;7603;49.432;11.418;2022-07-04T15:43:27;43.10;26.10
15013;DHT22;7603;49.432;11.418;2022-07-04T15:45:52;43.30;26.00
15013;DHT22;7603;49.432;11.418;2022-07-04T15:48:18;44.50;25.80
15013;DHT22;7603;49.432;11.418;2022-07-04T15:50:44;45.80;25.10
15013;DHT22;7603;49.432;11.418;2022-07-04T15:53:10;46.40;24.60
15013;DHT22;7603;49.432;11.418;2022-07-04T15:55:36;47.30;24.60
15013;DHT22;7603;49.432;11.418;2022-07-04T15:58:02;48.30;24.30
15013;DHT22;7603;49.432;11.418;2022-07-04T16:00:28;49.70;23.60
15013;DHT22;7603;49.432;11.418;2022-07-04T16:02:54;50.90;22.80
15013;DHT22;7603;49.432;11.418;2022-07-04T16:05:20;52.10;22.40
15013;DHT22;7603;49.432;11.418;2022-07-04T16:07:45;52.70;21.70
15013;DHT22;7603;49.432;11.418;2022-07-04T16:10:11;53.20;21.40
15013;DHT22;7603;49.432;11.418;2022-07-04T16:12:37;53.30;21.20
15013;DHT22;7603;49.432;11.418;2022-07-04T16:15:03;53.80;21.10
15013;DHT22;7603;49.432;11.418;2022-07-04T16:17:29;54.50;21.00
15013;DHT22;7603;49.432;11.418;2022-07-04T16:19:54;54.70;20.80
15013;DHT22;7603;49.432;11.418;2022-07-04T16:22:20;54.50;20.90
15013;DHT22;7603;49.432;11.418;2022-07-04T16:24:46;54.50;21.10
15013;DHT22;7603;49.432;11.418;2022-07-04T16:27:11;54.50;20.80
15013;DHT22;7603;49.432;11.418;2022-07-04T16:29:37;54.90;20.60
15013;DHT22;7603;49.432;11.418;2022-07-04T16:32:03;55.00;20.60
15013;DHT22;7603;49.432;11.418;2022-07-04T16:34:29;54.90;20.40
15013;DHT22;7603;49.432;11.418;2022-07-04T16:36:54;54.20;20.50
15013;DHT22;7603;49.432;11.418;2022-07-04T16:39:20;52.40;20.90
15013;DHT22;7603;49.432;11.418;2022-07-04T16:41:47;49.70;21.20
15013;DHT22;7603;49.432;11.418;2022-07-04T16:44:13;46.50;22.20
15013;DHT22;7603;49.432;11.418;2022-07-04T16:46:39;44.00;23.50
15013;DHT22;7603;49.432;11.418;2022-07-04T16:49:05;42.00;24.80
15013;DHT22;7603;49.432;11.418;2022-07-04T16:51:30;41.10;25.90
15013;DHT22;7603;49.432;11.418;2022-07-04T16:53:57;42.10;25.80
15013;DHT22;7603;49.432;11.418;2022-07-04T16:56:23;43.60;25.40
15013;DHT22;7603;49.432;11.418;2022-07-04T16:58:49;45.00;24.40
15013;DHT22;7603;49.432;11.418;2022-07-04T17:01:15;45.70;23.70
15013;DHT22;7603;49.432;11.418;2022-07-04T17:03:41;46.40;23.70
15013;DHT22;7603;49.432;11.418;2022-07-04T17:06:07;46.80;23.80
15013;DHT22;7603;49.432;11.418;2022-07-04T17:08:33;47.40;23.80
15013;DHT22;7603;49.432;11.418;2022-07-04T17:11:04;48.00;23.30
15013;DHT22;7603;49.432;11.418;2022-07-04T17:13:30;48.40;22.90